Time;durP1;ratioP1;P1;durP2;ratioP2;P2;SDS_P1;SDS_P2;PMS_P1;PMS_P2;Temp;Humidity;BMP_temperature;BMP_pressure;BME280_temperature;BME280_humidity;BME280_pressure;Samples;Min_cycle;Max_cycle;Signal;HPM_P1;HPM_P2
2022/06/23 00:00:33;;;;;;;3.90;2.83;;;;;;;;;;5016765;28;20099;-85
2022/06/23 00:03:01;;;;;;;2.63;2.40;;;;;;;;;;5034134;28;20478;-86
2022/06/23 00:05:34;;;;;;;4.70;2.33;;;;;;;;;;5016651;28;20057;-86
2022/06/23 00:08:01;;;;;;;4.47;2.50;;;;;;;;;;5033836;28;20041;-86
2022/06/23 00:10:44;;;;;;;4.50;2.75;;;;;;;;;;5016547;28;20148;-86
2022/06/23 00:13:15;;;;;;;2.90;2.70;;;;;;;;;;5016537;28;20133;-86
2022/06/23 00:15:44;;;;;;;2.85;2.50;;;;;;;;;;5033925;28;20049;-85
2022/06/23 00:18:23;;;;;;;2.45;2.22;;;;;;;;;;5033920;28;20132;-86
2022/06/23 00:20:53;;;;;;;2.40;2.22;;;;;;;;;;5033793;28;20484;-86
2022/06/23 00:23:23;;;;;;;4.07;2.65;;;;;;;;;;5016713;28;20045;-86
2022/06/23 00:26:09;;;;;;;3.78;2.78;;;;;;;;;;5016133;28;20405;-85
2022/06/23 00:28:42;;;;;;;4.53;2.40;;;;;;;;;;5016339;28;20091;-86
2022/06/23 00:31:24;;;;;;;4.70;2.70;;;;;;;;;;5015312;28;20188;-86
2022/06/23 00:33:52;;;;;;;4.85;2.85;;;;;;;;;;5016239;28;20053;-85
2022/06/23 00:36:25;;;;;;;5.15;2.47;;;;;;;;;;5016035;28;20103;-85
2022/06/23 00:38:52;;;;;;;5.35;2.70;;;;;;;;;;5015774;28;20152;-85
2022/06/23 00:41:22;;;;;;;4.07;2.60;;;;;;;;;;5015906;28;20059;-86
2022/06/23 00:43:51;;;;;;;2.80;2.60;;;;;;;;;;5033097;28;20041;-85
2022/06/23 00:46:28;;;;;;;3.55;2.85;;;;;;;;;;5033093;28;20129;-86
2022/06/23 00:49:08;;;;;;;5.18;3.13;;;;;;;;;;5032692;28;20049;-86
2022/06/23 00:51:40;;;;;;;5.53;2.65;;;;;;;;;;5015803;28;20096;-86
2022/06/23 00:54:19;;;;;;;4.35;2.70;;;;;;;;;;5032873;28;20053;-86
2022/06/23 00:56:51;;;;;;;3.80;2.88;;;;;;;;;;5033220;28;20053;-86
2022/06/23 00:59:21;;;;;;;2.85;2.65;;;;;;;;;;5033311;28;20049;-86
2022/06/23 01:02:20;;;;;;;4.97;2.85;;;;;;;;;;5015699;28;20148;-87
2022/06/23 01:04:54;;;;;;;8.02;2.53;;;;;;;;;;4973575;28;20072;-86
2022/06/23 01:07:27;;;;;;;3.13;2.88;;;;;;;;;;5015703;28;20133;-86
2022/06/23 01:10:14;;;;;;;3.13;2.83;;;;;;;;;;5015653;28;20486;-86
2022/06/23 01:12:44;;;;;;;4.57;3.10;;;;;;;;;;5015577;28;20052;-86
2022/06/23 01:15:11;;;;;;;3.33;3.10;;;;;;;;;;5032803;28;20136;-86
2022/06/23 01:17:41;;;;;;;3.15;2.90;;;;;;;;;;5033112;28;20058;-86
2022/06/23 01:20:12;;;;;;;3.20;2.80;;;;;;;;;;5032842;28;20084;-85
2022/06/23 01:22:52;;;;;;;2.90;2.70;;;;;;;;;;5032840;28;20076;-86
2022/06/23 01:25:25;;;;;;;3.75;3.00;;;;;;;;;;5015236;28;20143;-85
2022/06/23 01:28:01;;;;;;;3.10;2.90;;;;;;;;;;5032906;28;20478;-86
2022/06/23 01:30:41;;;;;;;3.40;3.10;;;;;;;;;;5015547;28;20502;-86
2022/06/23 01:33:17;;;;;;;4.43;3.05;;;;;;;;;;5032821;28;20589;-86
2022/06/23 01:35:53;;;;;;;3.67;2.60;;;;;;;;;;5032520;28;20053;-86
2022/06/23 01:38:23;;;;;;;3.60;3.30;;;;;;;;;;5015184;28;20132;-86
2022/06/23 01:40:57;;;;;;;4.20;3.05;;;;;;;;;;5032751;28;20050;-86
2022/06/23 01:43:42;;;;;;;4.45;3.00;;;;;;;;;;5019458;28;20141;-86
2022/06/23 01:46:12;;;;;;;3.85;3.45;;;;;;;;;;5036296;28;20513;-85
2022/06/23 01:48:51;;;;;;;3.92;3.33;;;;;;;;;;5018940;28;20049;-86
2022/06/23 01:51:27;;;;;;;5.10;2.90;;;;;;;;;;5019339;28;20059;-86
2022/06/23 01:53:55;;;;;;;3.75;3.30;;;;;;;;;;5019090;28;20125;-86
2022/06/23 01:56:22;;;;;;;5.40;3.67;;;;;;;;;;5036304;28;20049;-86
2022/06/23 01:58:54;;;;;;;6.28;3.40;;;;;;;;;;5018743;28;20053;-85
2022/06/23 02:01:27;;;;;;;5.65;3.38;;;;;;;;;;5018847;28;20081;-86
2022/06/23 02:04:01;;;;;;;3.88;3.40;;;;;;;;;;5035997;28;20401;-85
2022/06/23 02:06:39;;;;;;;3.30;3.10;;;;;;;;;;5018816;28;20482;-85
2022/06/23 02:09:18;;;;;;;3.22;3.03;;;;;;;;;;5018639;28;20053;-85
2022/06/23 02:11:48;;;;;;;4.20;3.60;;;;;;;;;;5036180;28;20460;-85
2022/06/23 02:14:15;;;;;;;3.25;3.03;;;;;;;;;;5036145;28;20103;-85
2022/06/23 02:16:48;;;;;;;3.50;3.30;;;;;;;;;;5018751;28;20464;-86
2022/06/23 02:19:15;;;;;;;;;;;;;;;;;;5019266;28;20041;-85
2022/06/23 02:21:51;;;;;;;4.43;3.30;;;;;;;;;;5034818;28;19960;-86
2022/06/23 02:24:32;;;;;;;3.35;3.10;;;;;;;;;;5036153;28;20085;-87
2022/06/23 02:26:59;;;;;;;4.72;3.55;;;;;;;;;;5036270;28;20540;-86
2022/06/23 02:29:29;;;;;;;6.07;3.80;;;;;;;;;;5036067;28;20552;-86
2022/06/23 02:32:01;;;;;;;3.55;3.25;;;;;;;;;;5018281;28;20084;-85
2022/06/23 02:34:34;;;;;;;4.28;3.55;;;;;;;;;;5035989;28;20452;-86
2022/06/23 02:37:07;;;;;;;3.47;3.30;;;;;;;;;;5035835;28;20073;-86
2022/06/23 02:39:42;;;;;;;3.33;3.13;;;;;;;;;;5018293;28;20057;-85
2022/06/23 02:42:28;;;;;;;6.43;3.63;;;;;;;;;;5018059;28;20136;-85
2022/06/23 02:45:04;;;;;;;3.58;3.25;;;;;;;;;;5018021;28;20465;-85
2022/06/23 02:47:50;;;;;;;6.63;3.97;;;;;;;;;;5018224;28;20100;-86
2022/06/23 02:50:27;;;;;;;3.85;3.53;;;;;;;;;;5017856;28;20053;-86
2022/06/23 02:53:01;;;;;;;4.07;3.72;;;;;;;;;;5016694;28;20452;-86
2022/06/23 02:55:46;;;;;;;6.28;3.90;;;;;;;;;;5017865;28;20053;-86
2022/06/23 02:58:16;;;;;;;4.47;3.92;;;;;;;;;;5017812;28;20081;-86
2022/06/23 03:00:46;;;;;;;4.47;4.05;;;;;;;;;;5017838;28;20056;-85
2022/06/23 03:03:23;;;;;;;3.58;3.35;;;;;;;;;;5017547;28;20072;-85
2022/06/23 03:06:00;;;;;;;8.25;3.50;;;;;;;;;;5017788;28;20240;-86
2022/06/23 03:08:30;;;;;;;4.07;3.63;;;;;;;;;;5017686;28;20132;-85
2022/06/23 03:11:16;;;;;;;4.43;4.00;;;;;;;;;;5017844;28;20128;-86
2022/06/23 03:13:52;;;;;;;6.13;4.47;;;;;;;;;;5034815;28;20506;-86
2022/06/23 03:16:30;;;;;;;4.97;3.72;;;;;;;;;;5017436;28;20132;-86
2022/06/23 03:19:00;;;;;;;6.20;3.60;;;;;;;;;;5034837;28;20060;-86
2022/06/23 03:21:30;;;;;;;3.92;3.30;;;;;;;;;;5035054;28;20467;-85
2022/06/23 03:24:08;;;;;;;4.10;3.80;;;;;;;;;;5017272;28;20045;-86
2022/06/23 03:26:36;;;;;;;4.38;3.45;;;;;;;;;;5034786;28;20504;-85
2022/06/23 03:29:17;;;;;;;5.35;3.80;;;;;;;;;;5018196;28;20041;-86
2022/06/23 03:32:01;;;;;;;3.85;3.63;;;;;;;;;;5017334;28;20136;-86
2022/06/23 03:34:36;;;;;;;4.30;3.90;;;;;;;;;;5034578;28;20059;-86
2022/06/23 03:37:13;;;;;;;4.32;3.72;;;;;;;;;;5017029;28;20053;-87
2022/06/23 03:42:30;;;;;;;4.32;3.60;;;;;;;;;;5034635;28;20076;-86
2022/06/23 03:45:04;;;;;;;4.18;3.67;;;;;;;;;;5016940;28;20107;-85
2022/06/23 03:47:36;;;;;;;4.60;3.33;;;;;;;;;;5034749;28;20050;-85
2022/06/23 03:50:18;;;;;;;5.25;4.20;;;;;;;;;;5016531;28;20059;-86
2022/06/23 03:52:48;;;;;;;4.78;4.30;;;;;;;;;;5034381;28;20049;-86
2022/06/23 03:55:34;;;;;;;5.28;3.72;;;;;;;;;;5016654;28;20476;-86
2022/06/23 03:58:04;;;;;;;6.88;4.85;;;;;;;;;;5016713;28;20124;-85
2022/06/23 04:00:34;;;;;;;10.40;7.35;;;;;;;;;;5034240;28;20468;-86
2022/06/23 04:03:01;;;;;;;10.25;6.15;;;;;;;;;;5034093;28;20132;-86
2022/06/23 04:05:30;;;;;;;6.43;5.45;;;;;;;;;;5016244;28;20104;-86
2022/06/23 04:08:00;;;;;;;8.20;5.15;;;;;;;;;;5016361;28;20107;-87
2022/06/23 04:10:32;;;;;;;5.20;4.80;;;;;;;;;;5016763;28;20041;-86
2022/06/23 04:13:14;;;;;;;5.70;5.10;;;;;;;;;;5017954;28;20053;-86
2022/06/23 04:15:42;;;;;;;8.45;4.93;;;;;;;;;;5016252;28;20051;-86
2022/06/23 04:18:19;;;;;;;5.22;4.82;;;;;;;;;;5016527;28;20081;-86
2022/06/23 04:20:53;;;;;;;4.97;4.55;;;;;;;;;;5016378;28;20092;-86
2022/06/23 04:23:23;;;;;;;4.15;3.72;;;;;;;;;;5016599;28;20132;-86
2022/06/23 04:25:52;;;;;;;3.65;3.33;;;;;;;;;;5033638;28;20045;-86
2022/06/23 04:28:22;;;;;;;4.97;3.35;;;;;;;;;;5033859;28;20081;-86
2022/06/23 04:30:51;;;;;;;4.35;3.60;;;;;;;;;;5033454;28;20092;-86
2022/06/23 04:33:19;;;;;;;5.63;3.83;;;;;;;;;;5016207;28;20077;-86
2022/06/23 04:35:48;;;;;;;3.35;3.10;;;;;;;;;;5016276;28;20449;-86
2022/06/23 04:38:19;;;;;;;3.63;3.33;;;;;;;;;;5033560;28;20053;-86
2022/06/23 04:40:49;;;;;;;8.60;4.80;;;;;;;;;;5015720;28;20063;-85
2022/06/23 04:43:29;;;;;;;4.25;3.95;;;;;;;;;;5033502;28;20137;-86
2022/06/23 04:46:31;;;;;;;3.80;3.20;;;;;;;;;;5015906;28;20049;-86
2022/06/23 04:49:05;;;;;;;11.05;9.10;;;;;;;;;;4933856;29;20155;-86
2022/06/23 04:51:34;;;;;;;6.07;5.65;;;;;;;;;;5018460;28;20088;-86
2022/06/23 04:54:11;;;;;;;9.88;8.98;;;;;;;;;;5033117;28;20065;-86
2022/06/23 04:56:38;;;;;;;9.75;7.88;;;;;;;;;;5016109;28;20448;-86
2022/06/23 04:59:24;;;;;;;20.15;15.95;;;;;;;;;;5015771;28;20128;-86
2022/06/23 05:01:52;;;;;;;6.07;5.05;;;;;;;;;;5015560;28;20045;-86
2022/06/23 05:04:25;;;;;;;4.57;4.20;;;;;;;;;;5015497;28;20088;-87
2022/06/23 05:06:55;;;;;;;9.95;3.83;;;;;;;;;;5033453;28;20049;-87
2022/06/23 05:09:26;;;;;;;6.47;3.63;;;;;;;;;;5016177;28;20053;-86
2022/06/23 05:11:56;;;;;;;11.02;3.65;;;;;;;;;;5015450;28;20046;-86
2022/06/23 05:14:43;;;;;;;16.67;4.32;;;;;;;;;;5032450;28;20080;-86
2022/06/23 05:17:13;;;;;;;9.63;2.80;;;;;;;;;;5019857;28;20560;-86
2022/06/23 05:19:42;;;;;;;5.90;2.88;;;;;;;;;;5022220;28;20128;-87
2022/06/23 05:22:17;;;;;;;6.05;3.00;;;;;;;;;;5021969;28;20131;-87
2022/06/23 05:24:45;;;;;;;1.88;1.77;;;;;;;;;;5021375;28;20069;-86
2022/06/23 05:27:22;;;;;;;4.00;1.80;;;;;;;;;;5021934;28;20390;-86
2022/06/23 05:29:55;;;;;;;3.25;1.65;;;;;;;;;;5039476;28;20140;-87
2022/06/23 05:32:28;;;;;;;7.82;2.03;;;;;;;;;;5039751;28;20390;-86
2022/06/23 05:35:19;;;;;;;5.95;1.67;;;;;;;;;;5022122;28;20056;-87
2022/06/23 05:38:05;;;;;;;4.03;1.80;;;;;;;;;;5012797;28;20046;-88
2022/06/23 05:40:32;;;;;;;1.98;1.77;;;;;;;;;;5039420;28;20056;-87
2022/06/23 05:43:01;;;;;;;2.63;1.80;;;;;;;;;;5039712;28;20057;-87
2022/06/23 05:45:40;;;;;;;2.85;1.17;;;;;;;;;;5039230;28;20550;-86
2022/06/23 05:48:11;;;;;;;5.68;1.80;;;;;;;;;;5039469;28;20506;-87
2022/06/23 05:50:50;;;;;;;16.92;2.92;;;;;;;;;;5039110;28;20132;-86
2022/06/23 05:53:24;;;;;;;20.02;3.50;;;;;;;;;;5039418;28;20136;-86
2022/06/23 05:55:54;;;;;;;15.80;3.22;;;;;;;;;;5039040;28;20132;-84
2022/06/23 05:58:24;;;;;;;14.30;2.80;;;;;;;;;;5021578;28;20049;-87
2022/06/23 06:01:09;;;;;;;21.27;3.30;;;;;;;;;;5021727;28;20520;-86
2022/06/23 06:03:42;;;;;;;17.65;3.33;;;;;;;;;;5021603;28;20149;-85
2022/06/23 06:06:10;;;;;;;;;;;;;;;;;;5039599;28;20132;-85
2022/06/23 06:11:31;;;;;;;16.08;3.67;;;;;;;;;;5039271;28;20140;-84
2022/06/23 06:13:59;;;;;;;10.55;3.10;;;;;;;;;;5021102;28;20050;-85
2022/06/23 06:16:26;;;;;;;12.07;2.20;;;;;;;;;;5019521;28;20057;-85
2022/06/23 06:18:54;;;;;;;6.72;2.25;;;;;;;;;;5021308;28;20072;-86
2022/06/23 06:21:22;;;;;;;6.13;2.35;;;;;;;;;;5038790;28;20055;-87
2022/06/23 06:24:06;;;;;;;9.32;1.80;;;;;;;;;;5038463;28;20053;-86
2022/06/23 06:26:35;;;;;;;6.18;1.80;;;;;;;;;;5038852;28;20081;-85
2022/06/23 06:29:12;;;;;;;2.55;1.50;;;;;;;;;;5018639;28;20140;-87
2022/06/23 06:31:42;;;;;;;6.32;1.90;;;;;;;;;;5035673;28;20149;-85
2022/06/23 06:34:14;;;;;;;8.07;1.80;;;;;;;;;;5017750;28;20049;-84
2022/06/23 06:36:44;;;;;;;8.25;1.77;;;;;;;;;;5035210;28;20421;-83
2022/06/23 06:39:11;;;;;;;4.38;1.88;;;;;;;;;;5017686;28;20058;-87
2022/06/23 06:41:39;;;;;;;7.43;2.05;;;;;;;;;;5035270;28;20060;-86
2022/06/23 06:44:06;;;;;;;9.43;2.00;;;;;;;;;;5017840;28;20144;-89
2022/06/23 06:46:35;;;;;;;5.60;1.50;;;;;;;;;;5017672;28;20050;-86
2022/06/23 06:49:02;;;;;;;10.90;1.90;;;;;;;;;;5016980;28;20056;-85
2022/06/23 06:51:29;;;;;;;5.20;1.67;;;;;;;;;;5017730;28;20493;-86
2022/06/23 06:53:58;;;;;;;4.13;2.08;;;;;;;;;;5017147;28;20124;-86
2022/06/23 06:56:52;;;;;;;5.43;2.10;;;;;;;;;;5034674;28;20147;-86
2022/06/23 06:59:29;;;;;;;4.03;1.73;;;;;;;;;;5013968;28;20050;-87
2022/06/23 07:02:02;;;;;;;7.03;1.80;;;;;;;;;;5034657;28;20052;-85
2022/06/23 07:04:33;;;;;;;6.15;1.83;;;;;;;;;;5017591;28;20072;-85
2022/06/23 07:07:05;;;;;;;5.35;1.30;;;;;;;;;;5034538;28;20103;-85
2022/06/23 07:09:42;;;;;;;7.17;1.37;;;;;;;;;;5017037;28;20061;-86
2022/06/23 07:12:28;;;;;;;6.68;1.48;;;;;;;;;;5016804;28;20296;-84
2022/06/23 07:15:17;;;;;;;8.18;1.70;;;;;;;;;;5017055;28;20049;-88
2022/06/23 07:17:47;;;;;;;6.43;1.17;;;;;;;;;;5034782;28;20135;-88
2022/06/23 07:20:14;;;;;;;5.40;1.50;;;;;;;;;;5016587;28;20140;-85
2022/06/23 07:22:44;;;;;;;9.15;1.50;;;;;;;;;;5017069;28;20132;-86
2022/06/23 07:25:14;;;;;;;6.00;1.45;;;;;;;;;;5016725;28;20129;-86
2022/06/23 07:27:47;;;;;;;3.53;1.45;;;;;;;;;;5016979;28;20057;-86
2022/06/23 07:30:16;;;;;;;2.28;1.15;;;;;;;;;;5016856;28;20128;-87
2022/06/23 07:33:02;;;;;;;3.50;1.15;;;;;;;;;;5016246;28;20058;-86
2022/06/23 07:35:36;;;;;;;3.47;1.92;;;;;;;;;;5016571;28;20065;-85
2022/06/23 07:38:17;;;;;;;3.00;1.45;;;;;;;;;;5016825;28;20057;-87
2022/06/23 07:40:53;;;;;;;5.40;1.40;;;;;;;;;;5015670;28;20042;-85
2022/06/23 07:43:25;;;;;;;4.82;1.52;;;;;;;;;;5016506;28;20049;-87
2022/06/23 07:45:54;;;;;;;2.42;1.30;;;;;;;;;;5016538;28;20135;-87
2022/06/23 07:48:22;;;;;;;3.17;1.33;;;;;;;;;;5016302;28;20051;-86
2022/06/23 07:50:49;;;;;;;5.80;1.30;;;;;;;;;;5016122;28;20083;-87
2022/06/23 07:53:22;;;;;;;9.07;1.30;;;;;;;;;;5033916;28;20081;-87
2022/06/23 07:55:49;;;;;;;3.63;1.25;;;;;;;;;;5033608;28;20048;-89
2022/06/23 07:58:19;;;;;;;5.65;1.33;;;;;;;;;;5034157;28;20085;-88
2022/06/23 08:00:47;;;;;;;4.43;1.40;;;;;;;;;;5016538;28;20049;-90
2022/06/23 08:03:16;;;;;;;7.10;1.52;;;;;;;;;;5016134;28;20077;-87
2022/06/23 08:05:46;;;;;;;4.82;1.33;;;;;;;;;;5015938;28;20052;-88
2022/06/23 08:08:18;;;;;;;6.57;1.30;;;;;;;;;;5033469;28;20497;-87
2022/06/23 08:10:47;;;;;;;1.88;1.00;;;;;;;;;;5033634;28;20045;-88
2022/06/23 08:13:20;;;;;;;5.57;1.38;;;;;;;;;;5016275;28;20087;-86
2022/06/23 08:18:44;;;;;;;4.43;1.30;;;;;;;;;;5033131;28;20049;-84
2022/06/23 08:21:23;;;;;;;1.45;0.88;;;;;;;;;;5015722;28;20128;-84
2022/06/23 08:23:56;;;;;;;5.95;1.40;;;;;;;;;;5015440;28;20132;-82
2022/06/23 08:26:24;;;;;;;15.98;2.42;;;;;;;;;;5032906;28;20467;-84
2022/06/23 08:28:53;;;;;;;1.45;0.90;;;;;;;;;;5032650;28;20124;-82
2022/06/23 08:31:20;;;;;;;3.92;1.20;;;;;;;;;;5033051;28;20136;-86
2022/06/23 08:34:08;;;;;;;1.25;0.90;;;;;;;;;;5018300;28;20068;-85
2022/06/23 08:36:41;;;;;;;2.78;1.25;;;;;;;;;;5015673;28;20494;-84
2022/06/23 08:39:08;;;;;;;;;;;;;;;;;;5015759;28;20067;-86
2022/06/23 08:41:44;;;;;;;1.10;1.00;;;;;;;;;;5031910;28;19964;-88
2022/06/23 08:44:34;;;;;;;5.10;1.30;;;;;;;;;;5018143;28;20127;-85
2022/06/23 08:47:27;;;;;;;4.88;1.02;;;;;;;;;;5015081;28;20045;-85
2022/06/23 08:50:08;;;;;;;3.55;1.00;;;;;;;;;;4995682;28;20084;-85
2022/06/23 08:52:43;;;;;;;2.08;1.05;;;;;;;;;;5031969;28;20128;-84
2022/06/23 08:55:13;;;;;;;3.13;1.10;;;;;;;;;;5015180;28;20046;-86
2022/06/23 08:58:06;;;;;;;3.35;1.20;;;;;;;;;;5032572;28;20051;-86
2022/06/23 09:00:50;;;;;;;3.15;1.15;;;;;;;;;;5015565;28;20128;-86
2022/06/23 09:03:24;;;;;;;2.33;1.02;;;;;;;;;;5015379;28;20487;-85
2022/06/23 09:05:58;;;;;;;3.30;1.08;;;;;;;;;;5032759;28;20126;-88
2022/06/23 09:08:31;;;;;;;4.93;1.27;;;;;;;;;;5032462;28;20081;-84
2022/06/23 09:11:21;;;;;;;2.35;1.00;;;;;;;;;;5032309;28;20057;-83
2022/06/23 09:14:07;;;;;;;4.80;1.13;;;;;;;;;;5014821;28;20047;-84
2022/06/23 09:16:37;;;;;;;7.65;1.60;;;;;;;;;;5014767;28;20096;-86
2022/06/23 09:19:17;;;;;;;3.25;0.90;;;;;;;;;;5015315;28;20056;-85
2022/06/23 09:21:44;;;;;;;5.63;1.23;;;;;;;;;;5014806;28;20470;-82
2022/06/23 09:24:25;;;;;;;14.10;2.30;;;;;;;;;;5015021;28;20129;-83
2022/06/23 09:27:04;;;;;;;5.68;1.10;;;;;;;;;;5014801;28;20128;-83
2022/06/23 09:29:48;;;;;;;4.40;0.98;;;;;;;;;;5032152;28;20477;-84
2022/06/23 09:32:19;;;;;;;1.80;1.00;;;;;;;;;;5032426;28;20080;-84
2022/06/23 09:34:53;;;;;;;3.83;0.93;;;;;;;;;;5014492;28;20433;-85
2022/06/23 09:37:42;;;;;;;1.85;1.02;;;;;;;;;;5014731;28;20064;-83
2022/06/23 09:40:13;;;;;;;3.67;0.90;;;;;;;;;;5014671;28;20580;-85
2022/06/23 09:42:54;;;;;;;2.05;1.10;;;;;;;;;;5014577;28;20133;-83
2022/06/23 09:45:28;;;;;;;3.38;1.13;;;;;;;;;;5014582;28;20128;-84
2022/06/23 09:47:55;;;;;;;1.10;1.00;;;;;;;;;;5014189;28;20584;-83
2022/06/23 09:50:23;;;;;;;4.28;1.15;;;;;;;;;;5031352;28;20513;-83
2022/06/23 09:53:05;;;;;;;7.35;1.55;;;;;;;;;;5014494;28;20057;-86
2022/06/23 09:55:45;;;;;;;3.63;1.20;;;;;;;;;;5014888;28;20564;-86
2022/06/23 09:58:24;;;;;;;2.60;0.90;;;;;;;;;;5014717;28;20375;-89
2022/06/23 10:01:03;;;;;;;7.90;1.55;;;;;;;;;;5014630;28;20080;-82
2022/06/23 10:03:36;;;;;;;4.78;1.27;;;;;;;;;;5016629;28;20072;-85
2022/06/23 10:06:26;;;;;;;2.75;1.05;;;;;;;;;;5018371;28;20049;-86
2022/06/23 10:09:12;;;;;;;9.25;1.20;;;;;;;;;;5017730;28;20489;-84
2022/06/23 10:11:46;;;;;;;1.10;1.00;;;;;;;;;;5035344;28;20132;-83
2022/06/23 10:14:20;;;;;;;1.45;0.90;;;;;;;;;;5035565;28;20053;-84
2022/06/23 10:17:19;;;;;;;7.32;1.48;;;;;;;;;;5017715;28;20186;-84
2022/06/23 10:19:46;;;;;;;4.30;1.20;;;;;;;;;;4981883;28;20085;-87
2022/06/23 10:22:29;;;;;;;3.13;1.20;;;;;;;;;;5017907;28;20088;-83
2022/06/23 10:25:08;;;;;;;3.27;1.30;;;;;;;;;;5034949;28;20570;-85
2022/06/23 10:27:54;;;;;;;5.18;1.00;;;;;;;;;;5017185;28;20049;-84
2022/06/23 10:30:21;;;;;;;2.58;1.25;;;;;;;;;;5035323;28;20137;-83
2022/06/23 10:33:07;;;;;;;4.90;1.05;;;;;;;;;;5035295;28;20136;-85
2022/06/23 10:35:34;;;;;;;4.03;1.20;;;;;;;;;;5035335;28;20128;-85
2022/06/23 10:38:25;;;;;;;2.53;1.10;;;;;;;;;;5016628;28;20060;-84
2022/06/23 10:41:04;;;;;;;4.97;1.40;;;;;;;;;;5034915;28;20081;-84
2022/06/23 10:43:34;;;;;;;2.25;1.02;;;;;;;;;;5035126;28;20054;-83
2022/06/23 10:46:02;;;;;;;5.85;1.27;;;;;;;;;;5034865;28;20100;-83
2022/06/23 10:48:45;;;;;;;14.93;1.80;;;;;;;;;;5016718;28;20064;-83
2022/06/23 10:51:15;;;;;;;1.25;0.98;;;;;;;;;;5017280;28;20084;-84
2022/06/23 10:54:01;;;;;;;7.65;1.60;;;;;;;;;;5034709;28;20081;-85
2022/06/23 10:56:39;;;;;;;4.13;1.10;;;;;;;;;;5017038;28;20045;-83
2022/06/23 10:59:24;;;;;;;2.20;1.30;;;;;;;;;;5016900;28;20054;-83
2022/06/23 11:02:04;;;;;;;4.28;1.10;;;;;;;;;;5034804;28;20071;-86
2022/06/23 11:04:44;;;;;;;1.98;1.30;;;;;;;;;;5017135;28;20124;-88
2022/06/23 11:07:30;;;;;;;3.05;1.00;;;;;;;;;;5018114;28;20049;-82
2022/06/23 11:10:06;;;;;;;1.85;1.10;;;;;;;;;;5017225;28;20463;-82
2022/06/23 11:12:34;;;;;;;1.33;1.20;;;;;;;;;;5016992;28;20052;-82
2022/06/23 11:15:20;;;;;;;1.17;0.90;;;;;;;;;;5034117;28;20085;-84
2022/06/23 11:17:54;;;;;;;1.50;1.10;;;;;;;;;;5016301;28;20053;-82
2022/06/23 11:20:31;;;;;;;6.18;1.15;;;;;;;;;;5034655;28;20490;-84
2022/06/23 11:23:17;;;;;;;1.52;1.10;;;;;;;;;;5033929;28;20516;-84
2022/06/23 11:26:04;;;;;;;2.45;0.90;;;;;;;;;;5016293;28;20087;-83
2022/06/23 11:28:37;;;;;;;4.28;1.80;;;;;;;;;;5016649;28;20136;-86
2022/06/23 11:31:21;;;;;;;1.40;1.23;;;;;;;;;;5034280;28;20046;-83
2022/06/23 11:34:11;;;;;;;1.65;1.13;;;;;;;;;;5034370;28;20054;-83
2022/06/23 11:36:50;;;;;;;2.15;1.27;;;;;;;;;;5034151;28;20093;-84
2022/06/23 11:39:32;;;;;;;2.95;1.00;;;;;;;;;;5016389;28;20049;-84
2022/06/23 11:42:02;;;;;;;1.33;1.05;;;;;;;;;;5034284;28;20050;-83
2022/06/23 11:44:38;;;;;;;1.17;1.08;;;;;;;;;;5033720;28;20409;-83
2022/06/23 11:47:25;;;;;;;0.90;0.90;;;;;;;;;;5033709;28;20077;-83
2022/06/23 11:50:01;;;;;;;1.80;1.20;;;;;;;;;;5033025;28;20469;-83
2022/06/23 11:52:33;;;;;;;3.80;1.63;;;;;;;;;;5033572;28;20047;-83
2022/06/23 11:55:12;;;;;;;9.73;2.10;;;;;;;;;;5015325;28;20136;-82
2022/06/23 11:57:55;;;;;;;4.00;0.88;;;;;;;;;;5033918;28;20107;-83
2022/06/23 12:00:31;;;;;;;3.97;1.20;;;;;;;;;;5033396;28;20581;-82
2022/06/23 12:03:14;;;;;;;3.90;1.45;;;;;;;;;;5033494;28;20045;-81
2022/06/23 12:05:53;;;;;;;2.05;1.50;;;;;;;;;;5033144;28;20053;-83
2022/06/23 12:08:21;;;;;;;4.85;1.40;;;;;;;;;;5033687;28;20057;-86
2022/06/23 12:10:48;;;;;;;4.85;1.50;;;;;;;;;;5015911;28;20081;-86
2022/06/23 12:13:15;;;;;;;5.15;1.45;;;;;;;;;;5033306;28;20084;-87
2022/06/23 12:15:48;;;;;;;1.48;1.25;;;;;;;;;;5015701;28;20179;-86
2022/06/23 12:18:17;;;;;;;4.30;1.45;;;;;;;;;;5016260;28;20053;-86
2022/06/23 12:21:15;;;;;;;3.13;1.35;;;;;;;;;;5016568;28;20100;-86
2022/06/23 12:23:48;;;;;;;4.10;1.50;;;;;;;;;;5034093;28;20053;-84
2022/06/23 12:26:17;;;;;;;2.97;1.67;;;;;;;;;;5032966;28;20448;-85
2022/06/23 12:28:50;;;;;;;1.50;1.40;;;;;;;;;;5033089;28;20688;-85
2022/06/23 12:31:23;;;;;;;2.88;1.30;;;;;;;;;;5033374;28;20053;-86
2022/06/23 12:33:55;;;;;;;2.33;1.23;;;;;;;;;;5033261;28;20125;-86
2022/06/23 12:36:31;;;;;;;4.30;1.67;;;;;;;;;;5015357;28;20049;-85
2022/06/23 12:39:02;;;;;;;9.82;2.10;;;;;;;;;;5032550;28;20387;-86
2022/06/23 12:41:34;;;;;;;1.88;1.20;;;;;;;;;;5033101;28;20068;-85
2022/06/23 12:44:12;;;;;;;4.80;2.03;;;;;;;;;;5033032;28;20080;-86
2022/06/23 12:46:47;;;;;;;2.67;1.55;;;;;;;;;;5032991;28;20148;-85
2022/06/23 12:49:24;;;;;;;1.58;1.40;;;;;;;;;;5015533;28;20055;-85
2022/06/23 12:52:03;;;;;;;4.15;1.55;;;;;;;;;;5032556;28;20049;-84
2022/06/23 12:54:37;;;;;;;1.30;1.20;;;;;;;;;;5032863;28;20065;-86
2022/06/23 12:57:23;;;;;;;1.50;1.33;;;;;;;;;;5015457;28;20452;-85
2022/06/23 12:59:54;;;;;;;2.60;1.17;;;;;;;;;;5032634;28;20095;-87
2022/06/23 13:02:33;;;;;;;2.47;1.23;;;;;;;;;;5032562;28;20577;-85
2022/06/23 13:05:22;;;;;;;2.97;1.40;;;;;;;;;;5032670;28;20049;-84
2022/06/23 13:07:53;;;;;;;1.20;1.20;;;;;;;;;;5015093;28;20061;-85
2022/06/23 13:10:23;;;;;;;1.63;1.20;;;;;;;;;;5015283;28;20088;-86
2022/06/23 13:13:06;;;;;;;2.63;1.40;;;;;;;;;;5016216;28;20149;-86
2022/06/23 13:15:34;;;;;;;3.03;1.13;;;;;;;;;;5015379;28;20042;-86
2022/06/23 13:18:09;;;;;;;4.43;1.50;;;;;;;;;;5015074;28;20049;-84
2022/06/23 13:20:47;;;;;;;3.85;1.23;;;;;;;;;;5014905;28;20089;-84
2022/06/23 13:23:16;;;;;;;2.13;1.27;;;;;;;;;;5032207;28;20053;-84
2022/06/23 13:25:54;;;;;;;4.05;1.33;;;;;;;;;;5016364;28;20069;-84
2022/06/23 13:28:30;;;;;;;2.88;1.85;;;;;;;;;;5032643;28;20577;-83
2022/06/23 13:31:00;;;;;;;6.03;1.83;;;;;;;;;;5014921;28;20091;-83
2022/06/23 13:33:37;;;;;;;4.63;2.20;;;;;;;;;;5014962;28;20136;-87
2022/06/23 13:36:07;;;;;;;10.00;1.63;;;;;;;;;;5015914;28;20073;-88
2022/06/23 13:38:47;;;;;;;1.20;1.10;;;;;;;;;;5017706;28;20085;-84
2022/06/23 13:41:37;;;;;;;2.70;1.23;;;;;;;;;;5036608;28;20045;-84
2022/06/23 13:44:20;;;;;;;6.53;1.50;;;;;;;;;;4983418;28;20132;-85
2022/06/23 13:46:50;;;;;;;1.30;1.25;;;;;;;;;;5036761;28;20136;-84
2022/06/23 13:49:25;;;;;;;1.73;1.17;;;;;;;;;;5018806;28;20466;-84
2022/06/23 13:51:58;;;;;;;2.45;1.50;;;;;;;;;;5036163;28;20064;-85
2022/06/23 13:54:36;;;;;;;1.77;1.13;;;;;;;;;;5019104;28;20433;-83
2022/06/23 13:57:11;;;;;;;4.22;1.40;;;;;;;;;;5036070;28;20474;-82
2022/06/23 14:00:13;;;;;;;2.20;1.27;;;;;;;;;;5035912;28;20088;-82
2022/06/23 14:02:49;;;;;;;1.60;1.48;;;;;;;;;;4938460;29;20480;-93
2022/06/23 14:05:26;;;;;;;1.45;1.33;;;;;;;;;;5025198;28;20132;-85
2022/06/23 14:08:02;;;;;;;3.38;1.38;;;;;;;;;;5036002;28;20088;-85
2022/06/23 14:10:53;;;;;;;5.55;1.60;;;;;;;;;;5018637;28;20088;-84
2022/06/23 14:13:40;;;;;;;3.28;1.45;;;;;;;;;;5035730;28;20135;-84
2022/06/23 14:16:15;;;;;;;5.68;1.15;;;;;;;;;;5018095;28;20516;-85
2022/06/23 14:18:46;;;;;;;1.45;1.25;;;;;;;;;;5036297;28;20045;-84
2022/06/23 14:21:22;;;;;;;3.10;1.30;;;;;;;;;;5018533;28;20045;-86
2022/06/23 14:24:12;;;;;;;1.85;1.10;;;;;;;;;;5018443;28;20570;-84
2022/06/23 14:26:39;;;;;;;2.90;1.30;;;;;;;;;;5008480;28;20076;-84
2022/06/23 14:29:19;;;;;;;1.67;1.20;;;;;;;;;;5017879;28;20049;-84
2022/06/23 14:32:00;;;;;;;4.00;1.42;;;;;;;;;;5017687;28;20140;-86
2022/06/23 14:34:27;;;;;;;1.60;1.50;;;;;;;;;;5035267;28;20521;-83
2022/06/23 14:37:02;;;;;;;2.10;1.30;;;;;;;;;;5018233;28;20132;-83
2022/06/23 14:39:41;;;;;;;3.58;1.52;;;;;;;;;;5014354;28;20145;-83
2022/06/23 14:42:27;;;;;;;13.88;2.08;;;;;;;;;;5015694;28;20137;-85
2022/06/23 14:45:21;;;;;;;6.80;1.40;;;;;;;;;;5014323;28;20115;-84
2022/06/23 14:47:50;;;;;;;1.50;1.40;;;;;;;;;;5015403;28;20491;-82
2022/06/23 14:50:21;;;;;;;3.53;1.33;;;;;;;;;;5012440;28;20053;-83
2022/06/23 14:52:54;;;;;;;1.77;1.25;;;;;;;;;;5015672;28;20050;-84
2022/06/23 14:55:36;;;;;;;5.28;1.40;;;;;;;;;;5015163;28;20149;-84
2022/06/23 14:58:10;;;;;;;2.50;1.20;;;;;;;;;;5014342;28;20125;-83
2022/06/23 15:00:42;;;;;;;1.27;1.17;;;;;;;;;;5014022;28;20084;-83
2022/06/23 15:03:20;;;;;;;3.67;1.42;;;;;;;;;;5015361;28;20072;-85
2022/06/23 15:05:55;;;;;;;2.60;1.42;;;;;;;;;;5015019;28;20133;-84
2022/06/23 15:08:40;;;;;;;1.30;1.20;;;;;;;;;;5015623;28;20056;-85
2022/06/23 15:11:13;;;;;;;1.90;1.17;;;;;;;;;;5013541;28;20074;-86
2022/06/23 15:13:43;;;;;;;4.93;1.50;;;;;;;;;;5013825;28;20056;-83
2022/06/23 15:16:26;;;;;;;1.45;1.35;;;;;;;;;;5015076;28;20140;-84
2022/06/23 15:19:13;;;;;;;2.55;1.40;;;;;;;;;;5013730;28;20112;-83
2022/06/23 15:25:08;;;;;;;3.47;1.23;;;;;;;;;;5014821;28;20048;-87
2022/06/23 15:27:41;;;;;;;1.15;1.15;;;;;;;;;;5014576;28;20093;-85
2022/06/23 15:30:08;;;;;;;;;;;;;;;;;;5015716;28;20046;-92
2022/06/23 15:32:41;;;;;;;4.55;1.60;;;;;;;;;;5015744;28;20412;-85
2022/06/23 15:35:15;;;;;;;5.22;1.80;;;;;;;;;;5013789;28;20046;-86
2022/06/23 15:38:00;;;;;;;1.67;1.40;;;;;;;;;;5014503;28;20137;-93
2022/06/23 15:40:31;;;;;;;9.70;1.70;;;;;;;;;;5034120;28;20136;-88
2022/06/23 15:43:01;;;;;;;2.97;2.30;;;;;;;;;;5016892;28;20552;-88